createdAt,value
2022-08-22T00:01:43.692Z,14.10
2022-08-22T00:03:06.867Z,14.30
2022-08-22T00:03:15.317Z,14.40
2022-08-22T00:04:16.744Z,14.10
2022-08-22T00:07:02.387Z,14.10
2022-08-22T00:09:29.788Z,14.00
2022-08-22T00:12:01.898Z,14.00
2022-08-22T00:14:38.602Z,13.90
2022-08-22T00:17:13.412Z,13.90
2022-08-22T00:19:47.499Z,13.90
2022-08-22T00:22:20.358Z,13.90
2022-08-22T00:24:58.139Z,13.80
2022-08-22T00:27:33.878Z,13.80
2022-08-22T00:30:05.702Z,13.80
2022-08-22T00:32:43.548Z,13.80
2022-08-22T00:35:29.421Z,13.80
2022-08-22T00:38:05.089Z,13.80
2022-08-22T00:40:53.667Z,13.80
2022-08-22T00:43:53.506Z,13.70
2022-08-22T00:46:46.899Z,13.70
2022-08-22T00:49:25.450Z,13.70
2022-08-22T00:52:16.315Z,13.70
2022-08-22T00:54:43.040Z,13.70
2022-08-22T00:57:09.816Z,13.60
2022-08-22T00:59:46.969Z,13.60
2022-08-22T01:02:16.715Z,13.70
2022-08-22T01:05:02.291Z,13.70
2022-08-22T01:07:37.883Z,13.70
2022-08-22T01:10:23.915Z,13.80
2022-08-22T01:12:56.565Z,13.80
2022-08-22T01:18:15.992Z,13.80
2022-08-22T01:21:01.848Z,13.90
2022-08-22T01:23:48.821Z,13.90
2022-08-22T01:26:21.666Z,13.90
2022-08-22T01:29:10.344Z,13.90
2022-08-22T01:31:49.657Z,13.90
2022-08-22T01:34:45.564Z,14.00
2022-08-22T01:37:31.446Z,14.00
2022-08-22T01:39:58.325Z,14.00
2022-08-22T01:42:43.862Z,14.00
2022-08-22T01:45:16.964Z,14.00
2022-08-22T01:47:43.714Z,14.00
2022-08-22T01:50:33.833Z,14.10
2022-08-22T01:53:03.728Z,14.10
2022-08-22T01:55:33.199Z,14.10
2022-08-22T01:58:01.563Z,14.10
2022-08-22T02:00:50.243Z,14.10
2022-08-22T02:03:27.178Z,14.10
2022-08-22T02:06:00.165Z,14.10
2022-08-22T02:08:31.663Z,14.20
2022-08-22T02:11:01.514Z,14.20
2022-08-22T02:13:47.184Z,14.20
2022-08-22T02:16:19.793Z,14.20
2022-08-22T02:18:54.199Z,14.30
2022-08-22T02:21:25.677Z,14.20
2022-08-22T02:24:01.346Z,14.30
2022-08-22T02:26:37.431Z,14.30
2022-08-22T02:29:12.235Z,14.20
2022-08-22T02:31:42.643Z,14.20
2022-08-22T02:34:24.539Z,14.20
2022-08-22T02:37:03.376Z,14.20
2022-08-22T02:39:39.235Z,14.20
2022-08-22T02:42:15.148Z,14.10
2022-08-22T02:44:52.848Z,14.10
2022-08-22T02:47:27.834Z,14.10
2022-08-22T02:50:03.205Z,14.10
2022-08-22T02:52:35.583Z,14.10
2022-08-22T02:55:02.253Z,14.10
2022-08-22T02:57:44.635Z,14.00
2022-08-22T03:00:31.172Z,14.00
2022-08-22T03:03:03.688Z,14.00
2022-08-22T03:05:30.392Z,13.90
2022-08-22T03:08:09.588Z,14.00
2022-08-22T03:10:41.465Z,13.90
2022-08-22T03:13:24.280Z,13.90
2022-08-22T03:16:05.499Z,13.90
2022-08-22T03:18:41.347Z,13.90
2022-08-22T03:21:09.314Z,13.80
2022-08-22T03:23:44.986Z,13.80
2022-08-22T03:26:11.634Z,13.80
2022-08-22T03:28:59.220Z,13.70
2022-08-22T03:31:28.202Z,13.70
2022-08-22T03:34:13.768Z,13.70
2022-08-22T03:36:44.901Z,13.60
2022-08-22T03:39:24.748Z,13.60
2022-08-22T03:41:57.484Z,13.60
2022-08-22T03:44:24.364Z,13.50
2022-08-22T03:47:09.544Z,13.50
2022-08-22T03:49:45.512Z,13.50
2022-08-22T03:52:24.294Z,13.40
2022-08-22T03:54:51.613Z,13.30
2022-08-22T03:57:21.418Z,13.30
2022-08-22T04:00:13.500Z,13.30
2022-08-22T04:02:58.547Z,13.30
2022-08-22T04:05:25.219Z,13.20
2022-08-22T04:08:14.048Z,13.20
2022-08-22T04:10:41.199Z,13.20
2022-08-22T04:13:14.043Z,13.20
2022-08-22T04:15:55.923Z,13.20
2022-08-22T04:18:47.629Z,13.10
2022-08-22T04:21:41.221Z,13.10
2022-08-22T04:24:21.170Z,13.10
2022-08-22T04:27:06.772Z,13.10
2022-08-22T04:29:42.366Z,13.00
2022-08-22T04:32:15.007Z,13.00
2022-08-22T04:34:46.599Z,13.00
2022-08-22T04:37:25.238Z,13.00
2022-08-22T04:40:07.373Z,13.00
2022-08-22T04:43:00.763Z,13.00
2022-08-22T04:45:56.715Z,13.00
2022-08-22T04:48:33.662Z,13.00
2022-08-22T04:51:26.696Z,13.00
2022-08-22T04:54:12.877Z,13.00
2022-08-22T04:56:52.024Z,13.10
2022-08-22T04:59:19.294Z,13.10
2022-08-22T05:01:57.080Z,13.10
2022-08-22T05:04:27.003Z,13.20
2022-08-22T05:06:56.797Z,13.20
2022-08-22T05:09:31.335Z,13.30
2022-08-22T05:12:03.250Z,13.30
2022-08-22T05:14:40.401Z,13.30
2022-08-22T05:17:09.124Z,13.40
2022-08-22T05:19:38.385Z,13.50
2022-08-22T05:22:12.830Z,13.50
2022-08-22T05:24:42.356Z,13.60
2022-08-22T05:27:21.393Z,13.70
2022-08-22T05:29:50.511Z,13.80
2022-08-22T05:32:34.458Z,13.80
2022-08-22T05:35:02.080Z,13.90
2022-08-22T05:37:58.760Z,14.00
2022-08-22T05:40:27.036Z,14.10
2022-08-22T05:42:54.812Z,14.30
2022-08-22T05:45:21.917Z,14.40
2022-08-22T05:47:51.588Z,14.50
2022-08-22T05:50:34.727Z,14.70
2022-08-22T05:53:01.575Z,14.90
2022-08-22T05:55:36.630Z,15.10
2022-08-22T05:58:03.302Z,15.30
2022-08-22T06:00:32.893Z,15.60
2022-08-22T06:03:15.031Z,15.80
2022-08-22T06:05:43.259Z,16.00
2022-08-22T06:08:31.110Z,16.30
2022-08-22T06:11:01.445Z,16.40
2022-08-22T06:13:40.145Z,16.70
2022-08-22T06:16:11.674Z,17.00
2022-08-22T06:18:40.228Z,17.30
2022-08-22T06:21:09.764Z,17.40
2022-08-22T06:23:38.740Z,17.60
2022-08-22T06:26:05.686Z,17.80
2022-08-22T06:28:55.360Z,18.00
2022-08-22T06:31:25.223Z,18.20
2022-08-22T06:33:57.350Z,18.40
2022-08-22T06:36:32.051Z,18.60
2022-08-22T06:39:02.307Z,18.80
2022-08-22T06:41:31.214Z,18.80
2022-08-22T06:43:58.737Z,18.90
2022-08-22T06:46:27.909Z,19.10
2022-08-22T06:48:55.594Z,19.20
2022-08-22T06:51:25.054Z,19.30
2022-08-22T06:53:54.535Z,19.40
2022-08-22T06:56:24.401Z,19.50
2022-08-22T06:58:54.524Z,19.60
2022-08-22T07:01:23.816Z,19.60
2022-08-22T07:03:51.911Z,19.80
2022-08-22T07:06:20.963Z,19.80
2022-08-22T07:08:52.488Z,19.90
2022-08-22T07:11:30.028Z,20.00
2022-08-22T07:14:00.174Z,20.10
2022-08-22T07:16:32.088Z,20.10
2022-08-22T07:18:58.917Z,20.10
2022-08-22T07:21:28.182Z,20.10
2022-08-22T07:23:55.607Z,20.20
2022-08-22T07:26:41.427Z,20.30
2022-08-22T07:29:11.553Z,20.30
2022-08-22T07:31:51.013Z,20.50
2022-08-22T07:34:38.108Z,20.80
2022-08-22T07:37:09.652Z,20.80
2022-08-22T07:39:58.222Z,21.00
2022-08-22T07:42:32.467Z,21.20
2022-08-22T07:45:17.558Z,21.30
2022-08-22T07:48:03.141Z,21.40
2022-08-22T07:50:31.454Z,21.50
2022-08-22T07:53:04.130Z,21.60
2022-08-22T07:55:31.025Z,21.80
2022-08-22T07:58:03.864Z,21.80
2022-08-22T08:00:31.436Z,21.80
2022-08-22T08:03:02.615Z,21.90
2022-08-22T08:05:33.225Z,22.00
2022-08-22T08:08:01.163Z,22.10
2022-08-22T08:10:33.135Z,22.00
2022-08-22T08:13:03.600Z,22.10
2022-08-22T08:15:32.131Z,22.30
2022-08-22T08:18:01.971Z,22.30
2022-08-22T08:20:30.175Z,22.40
2022-08-22T08:22:57.624Z,22.40
2022-08-22T08:25:28.244Z,22.50
2022-08-22T08:28:15.721Z,22.50
2022-08-22T08:30:54.671Z,22.60
2022-08-22T08:33:25.692Z,22.50
2022-08-22T08:36:27.311Z,22.50
2022-08-22T08:38:53.978Z,22.50
2022-08-22T08:41:22.639Z,22.40
2022-08-22T08:43:52.274Z,22.40
2022-08-22T08:46:34.812Z,22.30
2022-08-22T08:49:30.818Z,22.30
2022-08-22T08:52:24.971Z,22.40
2022-08-22T08:54:57.949Z,22.60
2022-08-22T08:57:40.155Z,22.80
2022-08-22T09:00:14.586Z,22.80
2022-08-22T09:03:01.041Z,22.90
2022-08-22T09:05:52.479Z,22.90
2022-08-22T09:08:22.168Z,22.90
2022-08-22T09:10:48.850Z,23.00
2022-08-22T09:13:34.543Z,23.00
2022-08-22T09:16:25.935Z,23.10
2022-08-22T09:18:59.288Z,23.20
2022-08-22T09:21:44.650Z,23.20
2022-08-22T09:24:19.435Z,23.20
2022-08-22T09:26:48.337Z,23.20
2022-08-22T09:29:34.334Z,23.20
2022-08-22T09:32:24.519Z,23.30
2022-08-22T09:35:01.863Z,23.30
2022-08-22T09:37:36.719Z,23.30
2022-08-22T09:40:05.746Z,23.30
2022-08-22T09:42:45.047Z,23.40
2022-08-22T09:45:32.771Z,23.50
2022-08-22T09:48:07.198Z,23.50
2022-08-22T09:51:01.594Z,23.50
2022-08-22T09:53:53.881Z,23.50
2022-08-22T09:56:26.216Z,23.60
2022-08-22T09:58:58.781Z,23.80
2022-08-22T10:01:45.343Z,24.00
2022-08-22T10:04:14.803Z,24.00
2022-08-22T10:06:46.398Z,24.00
2022-08-22T10:09:31.207Z,23.90
2022-08-22T10:12:25.100Z,23.90
2022-08-22T10:15:03.636Z,23.90
2022-08-22T10:17:41.078Z,24.00
2022-08-22T10:20:09.098Z,24.10
2022-08-22T10:22:36.526Z,24.30
2022-08-22T10:25:28.558Z,24.40
2022-08-22T10:27:55.503Z,24.50
2022-08-22T10:30:26.800Z,24.60
2022-08-22T10:33:04.061Z,24.60
2022-08-22T10:35:37.592Z,24.70
2022-08-22T10:38:16.532Z,24.80
2022-08-22T10:40:52.039Z,24.90
2022-08-22T10:43:28.748Z,25.00
2022-08-22T10:46:02.499Z,25.00
2022-08-22T10:48:51.907Z,25.10
2022-08-22T10:51:22.376Z,25.10
2022-08-22T10:53:53.039Z,25.10
2022-08-22T10:56:22.687Z,24.90
2022-08-22T10:59:03.994Z,24.80
2022-08-22T11:01:37.941Z,24.80
2022-08-22T11:04:20.596Z,24.70
2022-08-22T11:07:16.890Z,24.70
2022-08-22T11:09:47.629Z,24.70
2022-08-22T11:12:23.409Z,24.60
2022-08-22T11:14:53.490Z,24.60
2022-08-22T11:17:32.302Z,24.40
2022-08-22T11:20:13.559Z,24.40
2022-08-22T11:22:49.868Z,24.50
2022-08-22T11:25:41.886Z,24.50
2022-08-22T11:28:17.614Z,24.70
2022-08-22T11:30:47.310Z,24.70
2022-08-22T11:33:46.401Z,24.90
2022-08-22T11:36:17.539Z,25.00
2022-08-22T11:38:56.103Z,25.10
2022-08-22T11:41:25.500Z,25.20
2022-08-22T11:43:55.411Z,25.30
2022-08-22T11:46:25.648Z,25.30
2022-08-22T11:48:58.270Z,25.50
2022-08-22T11:51:44.052Z,25.80
2022-08-22T11:54:15.826Z,26.00
2022-08-22T11:56:43.468Z,26.20
2022-08-22T11:59:15.032Z,26.30
2022-08-22T12:01:47.357Z,26.30
2022-08-22T12:04:33.953Z,26.20
2022-08-22T12:07:01.161Z,26.10
2022-08-22T12:09:43.193Z,25.80
2022-08-22T12:12:20.145Z,25.70
2022-08-22T12:15:08.907Z,25.60
2022-08-22T12:17:55.729Z,25.40
2022-08-22T12:20:45.344Z,25.40
2022-08-22T12:23:15.326Z,25.50
2022-08-22T12:26:01.082Z,25.60
2022-08-22T12:28:29.479Z,25.80
2022-08-22T12:31:15.069Z,25.90
2022-08-22T12:33:57.520Z,26.00
2022-08-22T12:36:24.273Z,26.20
2022-08-22T12:39:07.665Z,26.30
2022-08-22T12:41:46.789Z,26.10
2022-08-22T12:44:18.355Z,26.10
2022-08-22T12:47:02.886Z,26.20
2022-08-22T12:49:52.433Z,26.30
2022-08-22T12:52:26.379Z,26.00
2022-08-22T12:55:02.136Z,25.90
2022-08-22T12:57:50.559Z,26.00
2022-08-22T13:00:45.234Z,26.00
2022-08-22T13:03:23.315Z,26.00
2022-08-22T13:05:52.378Z,26.20
2022-08-22T13:08:33.600Z,26.20
2022-08-22T13:11:15.026Z,26.30
2022-08-22T13:13:56.491Z,26.40
2022-08-22T13:16:25.086Z,26.30
2022-08-22T13:18:58.968Z,26.40
2022-08-22T13:21:31.567Z,26.50
2022-08-22T13:24:10.975Z,26.50
2022-08-22T13:26:46.240Z,26.50
2022-08-22T13:29:39.495Z,26.30
2022-08-22T13:32:10.955Z,26.00
2022-08-22T13:34:43.662Z,25.80
2022-08-22T13:37:13.234Z,25.50
2022-08-22T13:39:43.906Z,25.30
2022-08-22T13:42:29.828Z,25.20
2022-08-22T13:44:58.199Z,25.10
2022-08-22T13:47:27.742Z,25.10
2022-08-22T13:50:09.840Z,25.00
2022-08-22T13:52:37.880Z,25.10
2022-08-22T13:55:12.257Z,25.00
2022-08-22T13:57:44.956Z,24.90
2022-08-22T14:00:28.497Z,24.80
2022-08-22T14:02:56.824Z,24.80
2022-08-22T14:05:33.548Z,24.70
2022-08-22T14:08:01.544Z,24.60
2022-08-22T14:10:30.466Z,24.60
2022-08-22T14:12:57.650Z,24.50
2022-08-22T14:15:44.799Z,24.40
2022-08-22T14:18:18.541Z,24.40
2022-08-22T14:20:46.681Z,24.40
2022-08-22T14:23:29.197Z,24.40
2022-08-22T14:25:57.282Z,24.40
2022-08-22T14:28:27.711Z,24.40
2022-08-22T14:31:01.025Z,24.50
2022-08-22T14:33:49.602Z,24.50
2022-08-22T14:36:19.620Z,24.40
2022-08-22T14:39:00.043Z,24.50
2022-08-22T14:41:52.564Z,24.50
2022-08-22T14:44:29.253Z,24.40
2022-08-22T14:47:04.185Z,24.40
2022-08-22T14:49:47.196Z,24.50
2022-08-22T14:52:29.474Z,24.50
2022-08-22T14:55:08.663Z,24.30
2022-08-22T14:57:37.606Z,24.30
2022-08-22T15:00:14.364Z,24.10
2022-08-22T15:02:41.314Z,24.10
2022-08-22T15:05:16.275Z,24.00
2022-08-22T15:07:43.085Z,24.00
2022-08-22T15:10:25.572Z,24.00
2022-08-22T15:12:54.118Z,24.00
2022-08-22T15:15:31.011Z,24.00
2022-08-22T15:17:58.575Z,24.00
2022-08-22T15:20:36.197Z,24.00
2022-08-22T15:23:10.201Z,24.00
2022-08-22T15:25:42.155Z,24.00
2022-08-22T15:28:20.221Z,24.00
2022-08-22T15:31:07.538Z,24.00
2022-08-22T15:33:40.122Z,23.90
2022-08-22T15:36:22.310Z,23.90
2022-08-22T15:39:16.740Z,23.80
2022-08-22T15:41:46.242Z,23.90
2022-08-22T15:44:32.684Z,23.90
2022-08-22T15:47:24.336Z,24.00
2022-08-22T15:49:58.268Z,24.00
2022-08-22T15:52:28.626Z,24.20
2022-08-22T15:54:57.003Z,24.30
2022-08-22T15:57:29.402Z,24.40
2022-08-22T15:59:57.922Z,24.50
2022-08-22T16:02:42.920Z,24.60
2022-08-22T16:05:10.557Z,24.60
2022-08-22T16:07:43.299Z,24.70
2022-08-22T16:10:29.802Z,24.80
2022-08-22T16:13:11.794Z,24.60
2022-08-22T16:15:56.312Z,24.30
2022-08-22T16:18:37.483Z,24.30
2022-08-22T16:21:08.213Z,24.10
2022-08-22T16:23:50.178Z,24.00
2022-08-22T16:26:18.441Z,23.80
2022-08-22T16:28:58.237Z,23.70
2022-08-22T16:31:27.676Z,23.60
2022-08-22T16:33:59.354Z,23.50
2022-08-22T16:36:44.841Z,23.40
2022-08-22T16:39:30.379Z,23.20
2022-08-22T16:42:12.689Z,22.90
2022-08-22T16:44:42.865Z,22.90
2022-08-22T16:47:12.040Z,22.80
2022-08-22T16:49:52.611Z,22.80
2022-08-22T16:52:25.452Z,22.80
2022-08-22T16:54:55.717Z,22.50
2022-08-22T16:57:25.453Z,22.40
2022-08-22T16:59:52.555Z,22.30
2022-08-22T17:02:19.350Z,22.30
2022-08-22T17:05:06.088Z,22.30
2022-08-22T17:07:51.720Z,22.30
2022-08-22T17:10:27.785Z,22.30
2022-08-22T17:13:06.779Z,22.10
2022-08-22T17:15:52.260Z,22.10
2022-08-22T17:18:25.063Z,22.00
2022-08-22T17:21:00.815Z,21.90
2022-08-22T17:23:46.198Z,21.90
2022-08-22T17:26:31.376Z,21.80
2022-08-22T17:29:13.535Z,21.80
2022-08-22T17:31:59.122Z,21.70
2022-08-22T17:34:37.819Z,21.70
2022-08-22T17:37:07.717Z,21.60
2022-08-22T17:39:47.240Z,21.50
2022-08-22T17:42:19.015Z,21.50
2022-08-22T17:45:02.618Z,21.40
2022-08-22T17:47:58.917Z,21.30
2022-08-22T17:50:31.168Z,21.30
2022-08-22T17:53:03.154Z,21.30
2022-08-22T17:55:39.802Z,21.10
2022-08-22T17:58:13.560Z,21.10
2022-08-22T18:01:06.639Z,21.00
2022-08-22T18:03:35.461Z,20.90
2022-08-22T18:06:06.372Z,20.80
2022-08-22T18:09:13.441Z,20.80
2022-08-22T18:11:40.123Z,20.80
2022-08-22T18:14:12.553Z,20.70
2022-08-22T18:16:44.364Z,20.60
2022-08-22T18:19:23.484Z,20.60
2022-08-22T18:21:54.543Z,20.50
2022-08-22T18:24:33.268Z,20.40
2022-08-22T18:27:04.081Z,20.30
2022-08-22T18:29:42.831Z,20.20
2022-08-22T18:32:11.077Z,20.20
2022-08-22T18:35:02.528Z,20.10
2022-08-22T18:37:32.982Z,20.00
2022-08-22T18:40:20.837Z,20.00
2022-08-22T18:42:52.750Z,19.80
2022-08-22T18:45:44.105Z,19.80
2022-08-22T18:48:30.150Z,19.80
2022-08-22T18:51:38.675Z,19.70
2022-08-22T18:54:05.635Z,19.60
2022-08-22T18:56:47.934Z,19.50
2022-08-22T18:59:17.944Z,19.50
2022-08-22T19:01:56.919Z,19.50
2022-08-22T19:04:39.905Z,19.40
2022-08-22T19:07:18.499Z,19.40
2022-08-22T19:09:48.076Z,19.30
2022-08-22T19:12:23.016Z,19.20
2022-08-22T19:15:08.290Z,19.20
2022-08-22T19:17:59.185Z,19.10
2022-08-22T19:20:48.277Z,19.00
2022-08-22T19:23:34.175Z,18.90
2022-08-22T19:26:24.543Z,18.90
2022-08-22T19:28:55.124Z,18.80
2022-08-22T19:31:41.755Z,18.80
2022-08-22T19:34:30.873Z,18.70
2022-08-22T19:37:32.947Z,18.50
2022-08-22T19:40:02.363Z,18.50
2022-08-22T19:42:35.185Z,18.30
2022-08-22T19:45:17.691Z,18.30
2022-08-22T19:47:52.646Z,18.10
2022-08-22T19:50:21.326Z,18.10
2022-08-22T19:53:00.342Z,18.00
2022-08-22T19:55:39.618Z,18.00
2022-08-22T19:58:32.621Z,17.80
2022-08-22T20:01:22.588Z,17.80
2022-08-22T20:04:22.106Z,17.80
2022-08-22T20:07:15.428Z,17.80
2022-08-22T20:09:48.234Z,17.70
2022-08-22T20:12:31.284Z,17.70
2022-08-22T20:15:10.240Z,17.60
2022-08-22T20:17:38.951Z,17.60
2022-08-22T20:20:35.762Z,17.50
2022-08-22T20:23:05.887Z,17.50
2022-08-22T20:25:43.575Z,17.40
2022-08-22T20:28:33.251Z,17.40
2022-08-22T20:31:02.273Z,17.40
2022-08-22T20:33:32.498Z,17.30
2022-08-22T20:36:01.636Z,17.30
2022-08-22T20:38:34.865Z,17.30
2022-08-22T20:41:13.436Z,17.30
2022-08-22T20:43:53.049Z,17.30
2022-08-22T20:46:38.837Z,17.30
2022-08-22T20:49:21.945Z,17.30
2022-08-22T20:51:52.843Z,17.20
2022-08-22T20:54:21.331Z,17.20
2022-08-22T20:56:53.539Z,17.20
2022-08-22T20:59:29.879Z,17.20
2022-08-22T21:02:02.971Z,17.10
2022-08-22T21:04:42.052Z,17.20
2022-08-22T21:07:11.069Z,17.10
2022-08-22T21:09:56.663Z,17.10
2022-08-22T21:12:24.360Z,17.00
2022-08-22T21:14:51.103Z,17.00
2022-08-22T21:17:28.341Z,17.00
2022-08-22T21:19:57.884Z,17.00
2022-08-22T21:22:27.285Z,16.90
2022-08-22T21:24:56.246Z,16.90
2022-08-22T21:27:31.164Z,17.00
2022-08-22T21:29:59.357Z,16.90
2022-08-22T21:32:26.173Z,16.90
2022-08-22T21:34:53.646Z,16.90
2022-08-22T21:37:27.182Z,16.90
2022-08-22T21:40:17.164Z,16.90
2022-08-22T21:42:57.473Z,16.80
2022-08-22T21:45:29.214Z,16.80
2022-08-22T21:47:56.446Z,16.80
2022-08-22T21:50:23.506Z,16.70
2022-08-22T21:52:56.104Z,16.80
2022-08-22T21:55:23.667Z,16.70
2022-08-22T21:58:04.938Z,16.70
2022-08-22T22:00:48.561Z,16.70
2022-08-22T22:03:17.584Z,16.60
2022-08-22T22:05:44.418Z,16.60
2022-08-22T22:08:11.714Z,16.60
2022-08-22T22:10:39.320Z,16.50
2022-08-22T22:13:06.449Z,16.50
2022-08-22T22:15:36.923Z,16.50
2022-08-22T22:18:04.498Z,16.50
2022-08-22T22:20:31.880Z,16.40
2022-08-22T22:22:58.846Z,16.40
2022-08-22T22:25:40.786Z,16.40
2022-08-22T22:28:16.927Z,16.40
2022-08-22T22:30:45.393Z,16.40
2022-08-22T22:33:13.951Z,16.40
2022-08-22T22:35:41.032Z,16.40
2022-08-22T22:38:08.084Z,16.30
2022-08-22T22:40:35.347Z,16.30
2022-08-22T22:43:02.486Z,16.30
2022-08-22T22:45:29.703Z,16.30
2022-08-22T22:47:58.112Z,16.30
2022-08-22T22:50:25.236Z,16.30
2022-08-22T22:52:54.018Z,16.30
2022-08-22T22:55:24.764Z,16.30
2022-08-22T22:57:58.962Z,16.30
2022-08-22T23:00:30.865Z,16.30
2022-08-22T23:03:02.021Z,16.30
2022-08-22T23:05:32.791Z,16.20
2022-08-22T23:07:59.924Z,16.30
2022-08-22T23:10:27.388Z,16.20
2022-08-22T23:12:54.246Z,16.30
2022-08-22T23:15:23.423Z,16.30
2022-08-22T23:17:52.636Z,16.30
2022-08-22T23:20:19.658Z,16.20
2022-08-22T23:22:46.884Z,16.20
2022-08-22T23:25:13.997Z,16.20
2022-08-22T23:27:41.054Z,16.20
2022-08-22T23:30:10.912Z,16.20
2022-08-22T23:32:37.853Z,16.20
2022-08-22T23:35:04.864Z,16.10
2022-08-22T23:37:31.639Z,16.20
2022-08-22T23:39:58.473Z,16.20
2022-08-22T23:42:25.381Z,16.10
2022-08-22T23:44:52.125Z,16.20
2022-08-22T23:47:18.904Z,16.20
2022-08-22T23:49:45.746Z,16.20
2022-08-22T23:52:12.757Z,16.10
2022-08-22T23:54:39.569Z,16.20
2022-08-22T23:57:12.045Z,16.10
2022-08-22T23:59:46.098Z,16.10
